This is the latest recevied weather packets stored in our database for station/object OE3KJN-13. If no packets are shown the sender has not sent any weather packets the latest 1 day(s).
| Time | Temp. | Humidity | Pressure | Rain* | Wind** | Luminosity | Snow |
|---|---|---|---|---|---|---|---|
| 1777973615 | 27.78° C | 100% | 0 hPa | 0 mm | 1.34 m/s, 167° | - | - |
| 1777973315 | 31.11° C | 100% | 0 hPa | 0 mm | 0.45 m/s, 320° | - | - |
| 1777973015 | 30° C | 100% | 0 hPa | 0 mm | 0 m/s | - | - |
| 1777972714 | 28.89° C | 100% | 0 hPa | 0 mm | 0 m/s | - | - |
| 1777972414 | 26.11° C | 100% | 0 hPa | 0 mm | 1.34 m/s, 150° | - | - |
| 1777972114 | 26.67° C | 100% | 0 hPa | 0 mm | 2.24 m/s, 153° | - | - |
| 1777971813 | 28.89° C | 100% | 0 hPa | 0 mm | 1.34 m/s, 165° | - | - |
| 1777971513 | 26.67° C | 100% | 0 hPa | 0 mm | 0 m/s | - | - |
| 1777971213 | 26.11° C | 100% | 0 hPa | 0 mm | 1.79 m/s, 149° | - | - |
| 1777970913 | 25° C | 100% | 0 hPa | 0 mm | 0.45 m/s, 123° | - | - |
| 1777970612 | 25° C | 100% | 0 hPa | 0 mm | 1.34 m/s, 135° | - | - |
| 1777970312 | 23.33° C | 100% | 0 hPa | 0 mm | 0 m/s | - | - |
| 1777970012 | 25° C | 100% | 0 hPa | 0 mm | 1.34 m/s, 140° | - | - |
| 1777969711 | 22.78° C | 100% | 0 hPa | 0 mm | 0 m/s | - | - |
| 1777969411 | 23.33° C | 100% | 0 hPa | 0 mm | 0.89 m/s, 130° | - | - |
| 1777969111 | 22.78° C | 100% | 0 hPa | 0 mm | 0.45 m/s, 88° | - | - |
| 1777968811 | 22.22° C | 100% | 0 hPa | 0 mm | 1.79 m/s, 181° | - | - |
| 1777968510 | 22.78° C | 100% | 0 hPa | 0 mm | 2.24 m/s, 157° | - | - |
| 1777968210 | 22.22° C | 100% | 0 hPa | 0 mm | 1.34 m/s, 209° | - | - |
| 1777967910 | 21.67° C | 100% | 0 hPa | 0 mm | 0.45 m/s, 195° | - | - |
| 1777967609 | 20.56° C | 100% | 0 hPa | 0 mm | 1.34 m/s, 95° | - | - |
| 1777967309 | 21.67° C | 100% | 0 hPa | 0 mm | 0.45 m/s, 108° | - | - |
| 1777967009 | 21.67° C | 100% | 0 hPa | 0 mm | 0 m/s | - | - |
| 1777966708 | 20.56° C | 100% | 0 hPa | 0 mm | 0.89 m/s, 157° | - | - |
| 1777966408 | 23.33° C | 100% | 0 hPa | 0 mm | 0 m/s | - | - |
* Rain latest hour (hover to see other rain measurements)
** Current wind speed in m/s (hover to see current wind gust speed)